sensor_id;sensor_type;location;lat;lon;timestamp;temperature;humidity
26049;DHT22;13822;51.568;5.086;2024-01-11T00:06:43;-3.40;99.90
26049;DHT22;13822;51.568;5.086;2024-01-11T00:11:46;-3.40;99.90
26049;DHT22;13822;51.568;5.086;2024-01-11T00:16:53;-3.40;99.90
26049;DHT22;13822;51.568;5.086;2024-01-11T00:21:58;-3.40;99.90
26049;DHT22;13822;51.568;5.086;2024-01-11T00:33:18;-3.40;99.90
26049;DHT22;13822;51.568;5.086;2024-01-11T00:44:38;-3.40;99.90
26049;DHT22;13822;51.568;5.086;2024-01-11T00:49:59;-3.50;99.90
26049;DHT22;13822;51.568;5.086;2024-01-11T01:15:41;-3.40;99.90
26049;DHT22;13822;51.568;5.086;2024-01-11T01:26:39;-3.40;99.90
26049;DHT22;13822;51.568;5.086;2024-01-11T01:32:02;-3.50;99.90
26049;DHT22;13822;51.568;5.086;2024-01-11T01:37:08;-3.50;99.90
26049;DHT22;13822;51.568;5.086;2024-01-11T01:53:53;-3.60;99.90
26049;DHT22;13822;51.568;5.086;2024-01-11T03:14:35;-3.80;99.90
26049;DHT22;13822;51.568;5.086;2024-01-11T03:26:14;-3.90;99.90
26049;DHT22;13822;51.568;5.086;2024-01-11T03:31:26;-3.90;99.90
26049;DHT22;13822;51.568;5.086;2024-01-11T04:00:10;-4.00;99.90
26049;DHT22;13822;51.568;5.086;2024-01-11T04:12:40;-4.10;99.90
26049;DHT22;13822;51.568;5.086;2024-01-11T04:28:57;-4.20;99.90
26049;DHT22;13822;51.568;5.086;2024-01-11T04:34:02;-4.30;99.90
26049;DHT22;13822;51.568;5.086;2024-01-11T04:39:05;-4.40;99.90
26049;DHT22;13822;51.568;5.086;2024-01-11T04:44:13;-4.50;99.90
26049;DHT22;13822;51.568;5.086;2024-01-11T04:49:28;-4.50;99.90
26049;DHT22;13822;51.568;5.086;2024-01-11T04:54:32;-4.60;99.90
26049;DHT22;13822;51.568;5.086;2024-01-11T04:59:38;-4.60;99.90
26049;DHT22;13822;51.568;5.086;2024-01-11T05:04:42;-4.70;99.90
26049;DHT22;13822;51.568;5.086;2024-01-11T05:09:50;-4.70;99.90
26049;DHT22;13822;51.568;5.086;2024-01-11T05:14:53;-4.70;99.90
26049;DHT22;13822;51.568;5.086;2024-01-11T05:19:57;-4.70;99.90
26049;DHT22;13822;51.568;5.086;2024-01-11T05:24:59;-4.70;99.90
26049;DHT22;13822;51.568;5.086;2024-01-11T05:30:04;-4.70;99.90
26049;DHT22;13822;51.568;5.086;2024-01-11T05:35:16;-4.70;99.90
26049;DHT22;13822;51.568;5.086;2024-01-11T05:45:43;-4.80;99.90
26049;DHT22;13822;51.568;5.086;2024-01-11T05:50:51;-4.80;99.90
26049;DHT22;13822;51.568;5.086;2024-01-11T05:56:13;-4.90;99.90
26049;DHT22;13822;51.568;5.086;2024-01-11T06:01:15;-4.90;99.90
26049;DHT22;13822;51.568;5.086;2024-01-11T06:12:50;-4.80;99.90
26049;DHT22;13822;51.568;5.086;2024-01-11T06:18:02;-4.80;99.90
26049;DHT22;13822;51.568;5.086;2024-01-11T06:23:10;-4.80;99.90
26049;DHT22;13822;51.568;5.086;2024-01-11T06:28:22;-4.80;99.90
26049;DHT22;13822;51.568;5.086;2024-01-11T06:33:30;-4.90;99.90
26049;DHT22;13822;51.568;5.086;2024-01-11T06:38:43;-4.90;99.90
26049;DHT22;13822;51.568;5.086;2024-01-11T06:43:49;-4.90;99.90
26049;DHT22;13822;51.568;5.086;2024-01-11T06:48:51;-4.90;99.90
26049;DHT22;13822;51.568;5.086;2024-01-11T06:53:53;-4.80;99.90
26049;DHT22;13822;51.568;5.086;2024-01-11T06:58:55;-4.80;99.90
26049;DHT22;13822;51.568;5.086;2024-01-11T07:03:57;-4.80;99.90
26049;DHT22;13822;51.568;5.086;2024-01-11T07:08:59;-4.90;99.90
26049;DHT22;13822;51.568;5.086;2024-01-11T07:14:01;-4.90;99.90
26049;DHT22;13822;51.568;5.086;2024-01-11T07:19:05;-4.90;99.90
26049;DHT22;13822;51.568;5.086;2024-01-11T07:24:07;-4.90;99.90
26049;DHT22;13822;51.568;5.086;2024-01-11T07:29:09;-4.90;99.90
26049;DHT22;13822;51.568;5.086;2024-01-11T07:34:11;-5.00;99.90
26049;DHT22;13822;51.568;5.086;2024-01-11T07:39:13;-5.00;99.90
26049;DHT22;13822;51.568;5.086;2024-01-11T07:44:15;-5.00;99.90
26049;DHT22;13822;51.568;5.086;2024-01-11T07:49:17;-5.00;99.90
26049;DHT22;13822;51.568;5.086;2024-01-11T07:54:19;-5.00;99.90
26049;DHT22;13822;51.568;5.086;2024-01-11T07:59:21;-4.90;99.90
26049;DHT22;13822;51.568;5.086;2024-01-11T08:04:23;-4.90;99.90
26049;DHT22;13822;51.568;5.086;2024-01-11T08:09:25;-5.00;99.90
26049;DHT22;13822;51.568;5.086;2024-01-11T08:14:28;-5.00;99.90
26049;DHT22;13822;51.568;5.086;2024-01-11T08:19:30;-5.00;99.90
26049;DHT22;13822;51.568;5.086;2024-01-11T08:24:32;-5.00;99.90
26049;DHT22;13822;51.568;5.086;2024-01-11T08:29:36;-4.90;99.90
26049;DHT22;13822;51.568;5.086;2024-01-11T08:34:38;-4.90;99.90
26049;DHT22;13822;51.568;5.086;2024-01-11T08:39:40;-4.80;99.90
26049;DHT22;13822;51.568;5.086;2024-01-11T08:44:44;-4.90;99.90
26049;DHT22;13822;51.568;5.086;2024-01-11T08:49:46;-4.90;99.90
26049;DHT22;13822;51.568;5.086;2024-01-11T08:54:48;-4.90;99.90
26049;DHT22;13822;51.568;5.086;2024-01-11T08:59:50;-4.90;99.90
26049;DHT22;13822;51.568;5.086;2024-01-11T09:04:52;-4.80;99.90
26049;DHT22;13822;51.568;5.086;2024-01-11T09:09:54;-4.80;99.90
26049;DHT22;13822;51.568;5.086;2024-01-11T09:14:58;-4.80;99.90
26049;DHT22;13822;51.568;5.086;2024-01-11T09:20:00;-4.80;99.90
26049;DHT22;13822;51.568;5.086;2024-01-11T09:25:02;-4.70;99.90
26049;DHT22;13822;51.568;5.086;2024-01-11T09:30:04;-4.60;99.90
26049;DHT22;13822;51.568;5.086;2024-01-11T09:35:07;-4.60;99.90
26049;DHT22;13822;51.568;5.086;2024-01-11T09:40:14;-4.50;99.90
26049;DHT22;13822;51.568;5.086;2024-01-11T09:45:16;-4.40;99.90
26049;DHT22;13822;51.568;5.086;2024-01-11T09:50:18;-4.30;99.90
26049;DHT22;13822;51.568;5.086;2024-01-11T09:55:21;-4.20;99.90
26049;DHT22;13822;51.568;5.086;2024-01-11T10:00:23;-4.10;99.90
26049;DHT22;13822;51.568;5.086;2024-01-11T10:05:25;-3.90;99.90
26049;DHT22;13822;51.568;5.086;2024-01-11T10:10:28;-3.80;99.90
26049;DHT22;13822;51.568;5.086;2024-01-11T10:15:30;-3.80;99.90
26049;DHT22;13822;51.568;5.086;2024-01-11T10:20:32;-3.70;99.90
26049;DHT22;13822;51.568;5.086;2024-01-11T10:25:35;-3.50;99.90
26049;DHT22;13822;51.568;5.086;2024-01-11T10:30:37;-3.40;99.90
26049;DHT22;13822;51.568;5.086;2024-01-11T10:35:41;-3.30;99.90
26049;DHT22;13822;51.568;5.086;2024-01-11T10:40:43;-3.20;99.90
26049;DHT22;13822;51.568;5.086;2024-01-11T10:45:45;-3.00;99.90
26049;DHT22;13822;51.568;5.086;2024-01-11T10:50:57;-2.80;99.90
26049;DHT22;13822;51.568;5.086;2024-01-11T10:56:01;-2.70;99.90
26049;DHT22;13822;51.568;5.086;2024-01-11T11:01:05;-2.50;99.90
26049;DHT22;13822;51.568;5.086;2024-01-11T11:06:07;-2.40;99.90
26049;DHT22;13822;51.568;5.086;2024-01-11T11:11:10;-2.20;99.90
26049;DHT22;13822;51.568;5.086;2024-01-11T11:16:14;-2.10;99.90
26049;DHT22;13822;51.568;5.086;2024-01-11T11:21:17;-2.00;99.90
26049;DHT22;13822;51.568;5.086;2024-01-11T11:26:19;-1.90;99.90
26049;DHT22;13822;51.568;5.086;2024-01-11T11:31:36;-1.80;99.90
26049;DHT22;13822;51.568;5.086;2024-01-11T11:36:40;-1.70;99.90
26049;DHT22;13822;51.568;5.086;2024-01-11T11:41:43;-1.60;99.90
26049;DHT22;13822;51.568;5.086;2024-01-11T11:46:45;-1.50;99.90
26049;DHT22;13822;51.568;5.086;2024-01-11T11:51:48;-1.40;99.90
26049;DHT22;13822;51.568;5.086;2024-01-11T11:56:50;-1.30;99.90
26049;DHT22;13822;51.568;5.086;2024-01-11T12:01:54;-1.30;99.90
26049;DHT22;13822;51.568;5.086;2024-01-11T12:06:56;-1.20;99.90
26049;DHT22;13822;51.568;5.086;2024-01-11T12:11:58;-1.20;99.90
26049;DHT22;13822;51.568;5.086;2024-01-11T12:17:15;-1.00;99.90
26049;DHT22;13822;51.568;5.086;2024-01-11T12:22:18;-1.00;99.90
26049;DHT22;13822;51.568;5.086;2024-01-11T12:27:20;-0.90;99.90
26049;DHT22;13822;51.568;5.086;2024-01-11T12:32:22;-0.80;99.90
26049;DHT22;13822;51.568;5.086;2024-01-11T12:37:24;-0.80;99.90
26049;DHT22;13822;51.568;5.086;2024-01-11T12:42:27;-0.70;99.90
26049;DHT22;13822;51.568;5.086;2024-01-11T12:47:29;-0.60;99.90
26049;DHT22;13822;51.568;5.086;2024-01-11T12:52:31;-0.60;99.90
26049;DHT22;13822;51.568;5.086;2024-01-11T12:57:33;-0.50;99.90
26049;DHT22;13822;51.568;5.086;2024-01-11T13:02:37;-0.50;99.90
26049;DHT22;13822;51.568;5.086;2024-01-11T13:07:39;-0.40;99.90
26049;DHT22;13822;51.568;5.086;2024-01-11T13:12:41;-0.30;99.90
26049;DHT22;13822;51.568;5.086;2024-01-11T13:17:48;-0.30;99.90
26049;DHT22;13822;51.568;5.086;2024-01-11T13:28:21;-0.30;99.90
26049;DHT22;13822;51.568;5.086;2024-01-11T13:33:24;-0.30;99.90
26049;DHT22;13822;51.568;5.086;2024-01-11T13:38:26;-0.30;99.90
26049;DHT22;13822;51.568;5.086;2024-01-11T13:43:28;-0.20;99.90
26049;DHT22;13822;51.568;5.086;2024-01-11T13:48:31;-0.20;99.90
26049;DHT22;13822;51.568;5.086;2024-01-11T13:53:33;-0.10;99.90
26049;DHT22;13822;51.568;5.086;2024-01-11T13:58:35;-0.10;99.90
26049;DHT22;13822;51.568;5.086;2024-01-11T14:03:37;0.00;99.90
26049;DHT22;13822;51.568;5.086;2024-01-11T14:08:39;0.00;99.90
26049;DHT22;13822;51.568;5.086;2024-01-11T14:13:43;0.10;99.90
26049;DHT22;13822;51.568;5.086;2024-01-11T14:18:45;0.10;99.90
26049;DHT22;13822;51.568;5.086;2024-01-11T14:23:47;0.20;99.90
26049;DHT22;13822;51.568;5.086;2024-01-11T14:28:49;0.20;99.90
26049;DHT22;13822;51.568;5.086;2024-01-11T14:33:52;0.30;99.90
26049;DHT22;13822;51.568;5.086;2024-01-11T14:38:55;0.40;99.90
26049;DHT22;13822;51.568;5.086;2024-01-11T14:43:57;0.40;99.90
26049;DHT22;13822;51.568;5.086;2024-01-11T14:49:01;0.50;99.90
26049;DHT22;13822;51.568;5.086;2024-01-11T14:54:03;0.50;99.90
26049;DHT22;13822;51.568;5.086;2024-01-11T14:59:05;0.60;99.90
26049;DHT22;13822;51.568;5.086;2024-01-11T15:04:07;0.70;99.90
26049;DHT22;13822;51.568;5.086;2024-01-11T15:09:09;0.70;99.90
26049;DHT22;13822;51.568;5.086;2024-01-11T15:14:14;0.80;99.90
26049;DHT22;13822;51.568;5.086;2024-01-11T15:19:16;0.80;99.90
26049;DHT22;13822;51.568;5.086;2024-01-11T15:24:18;0.80;99.90
26049;DHT22;13822;51.568;5.086;2024-01-11T15:29:21;0.80;99.90
26049;DHT22;13822;51.568;5.086;2024-01-11T15:34:23;0.80;99.90
26049;DHT22;13822;51.568;5.086;2024-01-11T15:39:25;0.90;99.90
26049;DHT22;13822;51.568;5.086;2024-01-11T15:44:31;0.90;99.90
26049;DHT22;13822;51.568;5.086;2024-01-11T15:49:35;0.90;99.90
26049;DHT22;13822;51.568;5.086;2024-01-11T15:54:38;0.90;99.90
26049;DHT22;13822;51.568;5.086;2024-01-11T15:59:40;0.90;99.90
26049;DHT22;13822;51.568;5.086;2024-01-11T16:04:43;1.00;99.90
26049;DHT22;13822;51.568;5.086;2024-01-11T16:09:47;0.90;99.90
26049;DHT22;13822;51.568;5.086;2024-01-11T16:14:51;1.00;99.90
26049;DHT22;13822;51.568;5.086;2024-01-11T16:33:57;1.00;99.90
26049;DHT22;13822;51.568;5.086;2024-01-11T16:40:02;1.00;99.90
26049;DHT22;13822;51.568;5.086;2024-01-11T16:52:11;1.00;99.90
26049;DHT22;13822;51.568;5.086;2024-01-11T16:57:14;0.90;99.90
26049;DHT22;13822;51.568;5.086;2024-01-11T17:08:25;0.90;99.90
26049;DHT22;13822;51.568;5.086;2024-01-11T17:18:58;0.90;99.90
26049;DHT22;13822;51.568;5.086;2024-01-11T17:24:56;0.80;99.90
26049;DHT22;13822;51.568;5.086;2024-01-11T17:30:27;0.80;99.90
26049;DHT22;13822;51.568;5.086;2024-01-11T17:36:11;0.70;99.90
26049;DHT22;13822;51.568;5.086;2024-01-11T17:48:28;0.70;99.90
26049;DHT22;13822;51.568;5.086;2024-01-11T18:00:11;0.60;99.90
26049;DHT22;13822;51.568;5.086;2024-01-11T18:05:22;0.60;99.90
26049;DHT22;13822;51.568;5.086;2024-01-11T18:10:41;0.60;99.90
26049;DHT22;13822;51.568;5.086;2024-01-11T18:36:23;0.60;99.90
26049;DHT22;13822;51.568;5.086;2024-01-11T18:42:02;0.60;99.90
26049;DHT22;13822;51.568;5.086;2024-01-11T19:00:27;0.70;99.90
26049;DHT22;13822;51.568;5.086;2024-01-11T19:12:31;0.70;99.90
26049;DHT22;13822;51.568;5.086;2024-01-11T19:18:37;0.70;99.90
26049;DHT22;13822;51.568;5.086;2024-01-11T19:31:17;0.70;99.90
26049;DHT22;13822;51.568;5.086;2024-01-11T19:43:58;0.80;99.90
26049;DHT22;13822;51.568;5.086;2024-01-11T20:15:38;0.80;99.90
26049;DHT22;13822;51.568;5.086;2024-01-11T21:21:29;1.00;99.90
26049;DHT22;13822;51.568;5.086;2024-01-11T21:33:48;1.10;99.90
26049;DHT22;13822;51.568;5.086;2024-01-11T21:57:41;1.20;99.90
26049;DHT22;13822;51.568;5.086;2024-01-11T22:03:00;1.20;99.90
26049;DHT22;13822;51.568;5.086;2024-01-11T22:21:45;1.30;99.90
26049;DHT22;13822;51.568;5.086;2024-01-11T22:41:02;1.40;99.90
26049;DHT22;13822;51.568;5.086;2024-01-11T22:47:08;1.40;99.90
26049;DHT22;13822;51.568;5.086;2024-01-11T23:13:09;1.60;99.90
26049;DHT22;13822;51.568;5.086;2024-01-11T23:18:43;1.60;99.90
26049;DHT22;13822;51.568;5.086;2024-01-11T23:42:28;1.70;99.90
26049;DHT22;13822;51.568;5.086;2024-01-11T23:48:21;1.70;99.90
